createdAt,value
2023-02-06T00:01:37.667Z,11.40
2023-02-06T00:05:39.930Z,8.67
2023-02-06T00:09:42.175Z,11.83
2023-02-06T00:13:45.070Z,7.67
2023-02-06T00:17:47.237Z,8.57
2023-02-06T00:21:49.372Z,11.63
2023-02-06T00:25:51.589Z,8.90
2023-02-06T00:29:53.768Z,11.80
2023-02-06T00:33:55.946Z,10.33
2023-02-06T00:37:58.106Z,12.40
2023-02-06T00:42:01.625Z,10.67
2023-02-06T00:46:04.238Z,12.13
2023-02-06T00:50:06.696Z,9.53
2023-02-06T00:54:09.539Z,10.83
2023-02-06T00:58:11.745Z,10.97
2023-02-06T01:02:14.162Z,12.07
2023-02-06T01:06:16.295Z,10.83
2023-02-06T01:10:18.606Z,10.93
2023-02-06T01:14:20.826Z,10.07
2023-02-06T01:18:22.990Z,9.43
2023-02-06T01:22:25.268Z,9.17
2023-02-06T01:26:27.426Z,10.00
2023-02-06T01:30:29.706Z,10.40
2023-02-06T01:34:31.943Z,10.07
2023-02-06T01:38:35.802Z,11.07
2023-02-06T01:42:38.903Z,9.97
2023-02-06T01:46:43.861Z,10.83
2023-02-06T01:50:48.580Z,10.07
2023-02-06T01:54:57.492Z,9.53
2023-02-06T01:59:01.884Z,10.03
2023-02-06T02:03:04.606Z,8.33
2023-02-06T02:07:18.286Z,9.77
2023-02-06T02:11:29.324Z,9.13
2023-02-06T02:15:38.854Z,9.47
2023-02-06T02:19:50.098Z,9.10
2023-02-06T02:23:52.298Z,8.83
2023-02-06T02:28:13.234Z,8.17
2023-02-06T02:32:33.713Z,10.30
2023-02-06T02:36:42.501Z,9.97
2023-02-06T02:40:44.885Z,8.83
2023-02-06T02:44:53.636Z,9.40
2023-02-06T02:48:57.752Z,8.17
2023-02-06T02:53:01.286Z,8.27
2023-02-06T02:57:06.520Z,8.63
2023-02-06T03:01:10.732Z,9.97
2023-02-06T03:05:15.006Z,8.47
2023-02-06T03:09:39.330Z,9.90
2023-02-06T03:13:59.845Z,7.20
2023-02-06T03:18:08.616Z,9.77
2023-02-06T03:22:11.002Z,8.23
2023-02-06T03:26:15.319Z,10.77
2023-02-06T03:30:18.212Z,9.73
2023-02-06T03:34:32.194Z,9.20
2023-02-06T03:38:34.409Z,8.33
2023-02-06T03:42:39.861Z,9.43
2023-02-06T03:46:42.867Z,8.97
2023-02-06T03:50:47.307Z,8.80
2023-02-06T03:54:51.245Z,10.50
2023-02-06T03:58:53.408Z,7.07
2023-02-06T04:02:56.217Z,6.57
2023-02-06T04:06:59.292Z,6.83
2023-02-06T04:11:01.479Z,7.23
2023-02-06T04:15:03.718Z,7.43
2023-02-06T04:19:06.000Z,5.23
2023-02-06T04:23:08.906Z,7.23
2023-02-06T04:27:12.639Z,5.70
2023-02-06T04:31:14.895Z,8.37
2023-02-06T04:35:17.131Z,7.37
2023-02-06T04:39:19.273Z,7.30
2023-02-06T04:43:21.378Z,5.90
2023-02-06T04:47:23.564Z,6.10
2023-02-06T04:51:25.698Z,10.50
2023-02-06T04:55:27.896Z,7.73
2023-02-06T04:59:30.257Z,4.87
2023-02-06T05:03:32.452Z,4.37
2023-02-06T05:07:35.210Z,5.23
2023-02-06T05:11:37.447Z,5.40
2023-02-06T05:15:39.888Z,4.60
2023-02-06T05:19:42.096Z,4.73
2023-02-06T05:23:44.440Z,6.57
2023-02-06T05:27:46.628Z,4.40
2023-02-06T05:31:48.784Z,8.07
2023-02-06T05:35:50.960Z,6.03
2023-02-06T05:39:53.105Z,5.93
2023-02-06T05:43:55.210Z,5.97
2023-02-06T05:47:57.453Z,4.50
2023-02-06T05:51:59.570Z,5.13
2023-02-06T05:56:01.704Z,4.37
2023-02-06T06:00:05.390Z,7.70
2023-02-06T06:04:13.733Z,5.97
2023-02-06T06:08:15.907Z,4.43
2023-02-06T06:12:18.085Z,5.03
2023-02-06T06:16:20.234Z,6.57
2023-02-06T06:20:22.486Z,6.50
2023-02-06T06:24:24.832Z,4.67
2023-02-06T06:28:27.011Z,4.67
2023-02-06T06:32:29.140Z,6.97
2023-02-06T06:36:31.319Z,6.27
2023-02-06T06:40:33.468Z,5.60
2023-02-06T06:44:35.702Z,5.47
2023-02-06T06:48:38.009Z,6.50
2023-02-06T06:52:40.186Z,5.43
2023-02-06T06:56:42.880Z,7.70
2023-02-06T07:00:45.251Z,7.80
2023-02-06T07:04:47.407Z,6.30
2023-02-06T07:08:49.585Z,6.60
2023-02-06T07:12:51.728Z,6.83
2023-02-06T07:16:53.844Z,6.53
2023-02-06T07:20:56.049Z,4.93
2023-02-06T07:24:58.281Z,6.03
2023-02-06T07:29:00.401Z,8.43
2023-02-06T07:33:04.801Z,6.83
2023-02-06T07:37:06.995Z,7.20
2023-02-06T07:41:10.762Z,8.90
2023-02-06T07:45:13.895Z,7.70
2023-02-06T07:49:16.552Z,6.93
2023-02-06T07:53:18.657Z,8.00
2023-02-06T07:57:20.787Z,10.13
2023-02-06T08:01:23.651Z,7.60
2023-02-06T08:05:26.000Z,7.93
2023-02-06T08:09:28.250Z,6.67
2023-02-06T08:13:30.448Z,6.30
2023-02-06T08:17:32.621Z,6.87
2023-02-06T08:21:34.808Z,8.17
2023-02-06T08:25:37.377Z,10.17
2023-02-06T08:29:39.704Z,9.37
2023-02-06T08:33:42.164Z,7.93
2023-02-06T08:37:44.337Z,8.87
2023-02-06T08:41:46.778Z,8.67
2023-02-06T08:45:49.631Z,9.93
2023-02-06T08:49:51.860Z,8.23
2023-02-06T08:53:56.564Z,9.63
2023-02-06T08:57:58.693Z,7.63
2023-02-06T09:02:00.871Z,11.60
2023-02-06T09:06:09.692Z,12.03
2023-02-06T09:10:26.760Z,11.07
2023-02-06T09:14:30.318Z,11.33
2023-02-06T09:18:32.541Z,15.73
2023-02-06T09:22:34.660Z,10.00
2023-02-06T09:26:58.021Z,11.40
2023-02-06T09:31:01.587Z,12.67
2023-02-06T09:35:03.840Z,11.27
2023-02-06T09:39:07.060Z,15.37
2023-02-06T09:43:11.688Z,13.93
2023-02-06T09:47:29.263Z,14.27
2023-02-06T09:51:31.408Z,13.20
2023-02-06T09:55:33.712Z,12.50
2023-02-06T09:59:37.894Z,13.17
2023-02-06T10:03:39.995Z,14.60
2023-02-06T10:08:00.942Z,15.30
2023-02-06T10:12:06.241Z,13.20
2023-02-06T10:16:14.987Z,14.43
2023-02-06T10:20:19.745Z,14.33
2023-02-06T10:24:31.161Z,14.57
2023-02-06T10:28:33.789Z,12.90
2023-02-06T10:32:42.507Z,11.97
2023-02-06T10:37:03.620Z,11.87
2023-02-06T10:41:24.410Z,17.67
2023-02-06T10:45:36.043Z,13.90
2023-02-06T10:49:41.579Z,12.67
2023-02-06T10:53:48.336Z,18.53
2023-02-06T10:57:54.229Z,13.07
2023-02-06T11:02:04.237Z,15.23
2023-02-06T11:06:06.623Z,16.90
2023-02-06T11:10:12.797Z,17.47
2023-02-06T11:14:16.682Z,18.23
2023-02-06T11:18:20.312Z,14.73
2023-02-06T11:22:30.630Z,15.43
2023-02-06T11:26:33.436Z,16.33
2023-02-06T11:30:37.421Z,15.10
2023-02-06T11:34:45.080Z,14.07
2023-02-06T11:38:55.128Z,13.23
2023-02-06T11:43:17.901Z,14.50
2023-02-06T11:47:37.931Z,17.73
2023-02-06T11:51:46.362Z,13.47
2023-02-06T11:55:59.726Z,12.77
2023-02-06T12:00:19.169Z,13.57
2023-02-06T12:04:24.189Z,10.90
2023-02-06T12:08:37.044Z,10.33
2023-02-06T12:12:41.129Z,10.40
2023-02-06T12:16:44.713Z,10.67
2023-02-06T12:21:07.224Z,11.20
2023-02-06T12:25:24.430Z,10.07
2023-02-06T12:29:33.523Z,9.67
2023-02-06T12:33:37.549Z,8.10
2023-02-06T12:37:39.717Z,10.67
2023-02-06T12:41:47.902Z,9.33
2023-02-06T12:45:58.391Z,9.93
2023-02-06T12:50:00.547Z,7.83
2023-02-06T12:54:11.566Z,9.03
2023-02-06T12:58:28.856Z,8.93
2023-02-06T13:02:49.895Z,8.73
2023-02-06T13:06:54.369Z,9.17
2023-02-06T13:11:07.518Z,7.93
2023-02-06T13:15:21.579Z,8.90
2023-02-06T13:19:42.292Z,7.90
2023-02-06T13:24:10.833Z,10.03
2023-02-06T13:28:22.246Z,7.53
2023-02-06T13:32:24.560Z,8.37
2023-02-06T13:36:46.981Z,9.43
2023-02-06T13:40:49.565Z,9.47
2023-02-06T13:44:52.172Z,11.37
2023-02-06T13:49:00.586Z,9.53
2023-02-06T13:53:11.296Z,8.87
2023-02-06T13:57:32.184Z,10.67
2023-02-06T14:01:34.525Z,11.93
2023-02-06T14:05:56.951Z,7.13
2023-02-06T14:09:59.114Z,8.30
2023-02-06T14:14:01.218Z,12.80
2023-02-06T14:18:03.383Z,9.20
2023-02-06T14:22:08.709Z,9.07
2023-02-06T14:26:19.300Z,7.70
2023-02-06T14:30:32.758Z,7.90
2023-02-06T14:34:34.916Z,9.20
2023-02-06T14:38:40.096Z,9.97
2023-02-06T14:42:43.814Z,8.23
2023-02-06T14:46:46.092Z,10.00
2023-02-06T14:50:51.368Z,9.27
2023-02-06T14:54:53.843Z,9.70
2023-02-06T14:58:56.058Z,8.50
2023-02-06T15:03:15.709Z,7.83
2023-02-06T15:07:25.851Z,8.80
2023-02-06T15:11:29.301Z,10.83
2023-02-06T15:15:33.619Z,19.77
2023-02-06T15:19:35.802Z,11.20
2023-02-06T15:23:37.937Z,12.23
2023-02-06T15:27:40.305Z,12.13
2023-02-06T15:31:47.136Z,10.90
2023-02-06T15:35:50.828Z,12.67
2023-02-06T15:39:53.710Z,8.77
2023-02-06T15:43:59.253Z,9.10
2023-02-06T15:48:03.189Z,12.83
2023-02-06T15:52:05.779Z,11.97
2023-02-06T15:56:29.118Z,9.73
2023-02-06T16:00:36.581Z,9.17
2023-02-06T16:04:40.177Z,10.50
2023-02-06T16:08:43.968Z,9.93
2023-02-06T16:12:46.306Z,7.67
2023-02-06T16:16:59.237Z,8.00
2023-02-06T16:21:16.640Z,8.93
2023-02-06T16:25:22.961Z,10.53
2023-02-06T16:29:30.297Z,8.57
2023-02-06T16:33:34.870Z,12.07
2023-02-06T16:37:37.046Z,7.33
2023-02-06T16:41:40.006Z,11.17
2023-02-06T16:45:42.160Z,10.73
2023-02-06T16:49:44.673Z,8.67
2023-02-06T16:53:47.611Z,14.30
2023-02-06T16:57:51.792Z,9.97
2023-02-06T17:01:53.991Z,12.83
2023-02-06T17:05:56.238Z,8.63
2023-02-06T17:09:59.228Z,14.00
2023-02-06T17:14:01.450Z,8.83
2023-02-06T17:18:03.671Z,9.93
2023-02-06T17:22:06.287Z,9.63
2023-02-06T17:26:15.836Z,8.67
2023-02-06T17:30:22.448Z,11.07
2023-02-06T17:34:24.722Z,9.83
2023-02-06T17:38:26.980Z,15.00
2023-02-06T17:42:29.136Z,10.23
2023-02-06T17:46:31.508Z,14.60
2023-02-06T17:50:34.038Z,12.83
2023-02-06T17:54:36.336Z,9.63
2023-02-06T17:58:38.796Z,13.40
2023-02-06T18:02:41.288Z,12.77
2023-02-06T18:06:43.816Z,9.43
2023-02-06T18:10:46.025Z,10.97
2023-02-06T18:14:48.493Z,13.17
2023-02-06T18:18:50.811Z,10.10
2023-02-06T18:22:53.040Z,11.97
2023-02-06T18:26:55.145Z,10.60
2023-02-06T18:30:57.409Z,10.93
2023-02-06T18:35:00.098Z,12.40
2023-02-06T18:39:02.395Z,12.43
2023-02-06T18:43:04.984Z,11.57
2023-02-06T18:47:07.151Z,12.63
2023-02-06T18:51:09.308Z,10.63
2023-02-06T18:55:11.501Z,12.30
2023-02-06T18:59:13.661Z,10.53
2023-02-06T19:03:15.840Z,11.53
2023-02-06T19:07:18.025Z,15.13
2023-02-06T19:11:20.259Z,15.20
2023-02-06T19:15:22.492Z,10.50
2023-02-06T19:19:24.790Z,18.03
2023-02-06T19:23:26.936Z,14.50
2023-02-06T19:27:29.129Z,16.43
2023-02-06T19:31:31.325Z,13.63
2023-02-06T19:35:33.480Z,12.13
2023-02-06T19:39:35.733Z,13.93
2023-02-06T19:43:38.240Z,11.67
2023-02-06T19:47:40.393Z,12.73
2023-02-06T19:51:43.131Z,15.47
2023-02-06T19:55:48.444Z,13.20
2023-02-06T19:59:50.634Z,14.30
2023-02-06T20:03:53.062Z,14.43
2023-02-06T20:07:55.444Z,13.90
2023-02-06T20:11:57.812Z,14.37
2023-02-06T20:15:59.986Z,15.43
2023-02-06T20:20:02.191Z,14.80
2023-02-06T20:24:06.061Z,16.33
2023-02-06T20:28:08.391Z,16.27
2023-02-06T20:32:10.882Z,15.00
2023-02-06T20:36:20.598Z,18.83
2023-02-06T20:40:23.039Z,16.87
2023-02-06T20:44:25.246Z,19.70
2023-02-06T20:48:27.533Z,14.87
2023-02-06T20:52:29.712Z,16.73
2023-02-06T20:56:31.887Z,15.57
2023-02-06T21:00:34.825Z,15.43
2023-02-06T21:04:37.109Z,18.13
2023-02-06T21:08:39.365Z,19.23
2023-02-06T21:12:41.622Z,18.33
2023-02-06T21:16:43.733Z,15.70
2023-02-06T21:20:46.033Z,14.40
2023-02-06T21:24:48.215Z,18.37
2023-02-06T21:28:50.555Z,15.17
2023-02-06T21:32:52.835Z,15.57
2023-02-06T21:36:55.299Z,15.13
2023-02-06T21:41:03.478Z,31.90
2023-02-06T21:45:05.809Z,24.23
2023-02-06T21:49:07.980Z,27.60
2023-02-06T21:53:10.239Z,21.63
2023-02-06T21:57:12.430Z,24.30
2023-02-06T22:01:16.297Z,27.50
2023-02-06T22:05:18.599Z,25.60
2023-02-06T22:09:20.804Z,19.77
2023-02-06T22:13:23.000Z,16.57
2023-02-06T22:17:25.131Z,24.73
2023-02-06T22:21:28.276Z,23.57
2023-02-06T22:25:30.496Z,22.10
2023-02-06T22:29:32.790Z,22.50
2023-02-06T22:33:35.188Z,20.50
2023-02-06T22:37:37.407Z,20.20
2023-02-06T22:41:41.325Z,24.47
2023-02-06T22:45:43.476Z,17.73
2023-02-06T22:49:45.652Z,19.07
2023-02-06T22:53:47.874Z,19.10
2023-02-06T22:57:50.013Z,18.90
2023-02-06T23:01:56.091Z,16.53
2023-02-06T23:06:01.514Z,19.90
2023-02-06T23:10:03.786Z,15.43
2023-02-06T23:14:06.292Z,19.40
2023-02-06T23:18:08.459Z,19.50
2023-02-06T23:22:10.767Z,15.90
2023-02-06T23:26:13.460Z,18.07
2023-02-06T23:30:15.679Z,16.73
2023-02-06T23:34:18.618Z,14.60
2023-02-06T23:38:20.849Z,19.47
2023-02-06T23:42:23.009Z,13.67
2023-02-06T23:46:25.261Z,15.80
2023-02-06T23:50:27.491Z,15.27
2023-02-06T23:54:29.780Z,16.23
2023-02-06T23:58:31.963Z,18.97
